Time;durP1;ratioP1;P1;durP2;ratioP2;P2;SDS_P1;SDS_P2;PMS_P1;PMS_P2;Temp;Humidity;BMP_temperature;BMP_pressure;BME280_temperature;BME280_humidity;BME280_pressure;Samples;Min_cycle;Max_cycle;Signal;HPM_P1;HPM_P2
2021/04/10 00:01:43;;;;;;;3.22;1.10;;;-2.10;99.90;;;;;;5038608;28;20238;-73
2021/04/10 00:04:10;;;;;;;5.45;1.30;;;-2.10;99.90;;;;;;5037134;28;20232;-74
2021/04/10 00:06:36;;;;;;;4.47;1.10;;;-2.10;99.90;;;;;;5024488;28;20193;-74
2021/04/10 00:09:06;;;;;;;1.25;1.05;;;-2.10;99.90;;;;;;5024450;28;21856;-73
2021/04/10 00:11:33;;;;;;;1.40;0.95;;;-2.10;99.90;;;;;;5037735;28;20208;-75
2021/04/10 00:13:59;;;;;;;3.30;1.20;;;-2.10;99.90;;;;;;5041009;28;20239;-75
2021/04/10 00:16:25;;;;;;;1.13;1.00;;;-2.10;99.90;;;;;;5037696;28;20201;-74
2021/04/10 00:18:50;;;;;;;1.20;1.10;;;-2.10;99.90;;;;;;5037427;28;20202;-74
2021/04/10 00:21:16;;;;;;;1.20;1.10;;;-2.00;99.90;;;;;;5033455;28;20213;-74
2021/04/10 00:23:44;;;;;;;5.05;0.95;;;-2.00;99.90;;;;;;5023643;28;20194;-74
2021/04/10 00:26:16;;;;;;;1.25;1.10;;;-2.10;99.90;;;;;;5040605;28;20197;-74
2021/04/10 00:28:42;;;;;;;1.20;1.00;;;-2.20;99.90;;;;;;5040691;28;20202;-74
2021/04/10 00:31:08;;;;;;;1.30;1.20;;;-2.30;99.90;;;;;;5036774;28;20205;-73
2021/04/10 00:33:39;;;;;;;1.67;1.15;;;-2.30;99.90;;;;;;5040599;28;20217;-74
2021/04/10 00:36:09;;;;;;;2.67;1.20;;;-2.30;99.90;;;;;;5039622;28;20551;-75
2021/04/10 00:38:38;;;;;;;1.90;1.27;;;-2.10;99.90;;;;;;5023043;28;20255;-74
2021/04/10 00:41:05;;;;;;;1.20;1.10;;;-2.10;99.90;;;;;;5039145;28;20205;-74
2021/04/10 00:43:31;;;;;;;2.95;1.17;;;-2.10;99.90;;;;;;5039080;28;20209;-74
2021/04/10 00:45:56;;;;;;;3.72;1.30;;;-2.20;99.90;;;;;;5026177;28;20227;-73
2021/04/10 00:48:22;;;;;;;3.95;1.00;;;-2.30;99.90;;;;;;5042132;28;20691;-74
2021/04/10 00:50:52;;;;;;;1.25;1.02;;;-2.30;99.90;;;;;;5022649;28;20289;-74
2021/04/10 00:53:19;;;;;;;2.83;1.10;;;-2.30;99.90;;;;;;5025120;28;20202;-73
2021/04/10 00:55:47;;;;;;;13.38;1.02;;;-2.40;99.90;;;;;;5046139;28;20208;-73
2021/04/10 00:58:13;;;;;;;1.95;1.20;;;-2.30;99.90;;;;;;5046902;28;20193;-74
2021/04/10 01:00:41;;;;;;;6.60;1.30;;;-2.30;99.90;;;;;;5044295;28;20220;-73
2021/04/10 01:03:07;;;;;;;4.05;1.30;;;-2.40;99.90;;;;;;5043782;28;20287;-73
2021/04/10 01:05:33;;;;;;;2.22;1.30;;;-2.40;99.90;;;;;;5026702;23;20233;-82
2021/04/10 01:08:00;;;;;;;6.18;1.30;;;-2.40;99.90;;;;;;5042060;28;20687;-81
2021/04/10 01:10:27;;;;;;;1.17;1.00;;;-2.40;99.90;;;;;;5030590;28;20194;-81
2021/04/10 01:13:15;;;;;;;1.20;1.10;;;-2.40;99.90;;;;;;5045331;28;20201;-81
2021/04/10 01:16:07;;;;;;;7.88;1.10;;;-2.40;99.90;;;;;;5043031;28;20197;-81
2021/04/10 01:19:00;;;;;;;2.97;1.38;;;-2.40;99.90;;;;;;5044804;28;22199;-81
2021/04/10 01:21:40;;;;;;;1.60;1.50;;;-2.50;99.90;;;;;;5043290;28;20284;-82
2021/04/10 01:24:30;;;;;;;2.45;1.10;;;-2.50;99.90;;;;;;5028029;28;20197;-81
2021/04/10 01:27:29;;;;;;;1.98;1.17;;;-2.60;99.90;;;;;;5026172;28;20202;-81
2021/04/10 01:30:16;;;;;;;1.42;1.00;;;-2.70;99.90;;;;;;5030830;28;20217;-81
2021/04/10 01:32:52;;;;;;;6.45;1.10;;;-2.80;99.90;;;;;;5024792;28;20255;-81
2021/04/10 01:35:21;;;;;;;2.05;1.02;;;-2.90;99.90;;;;;;5043274;28;20193;-82
2021/04/10 01:37:58;;;;;;;2.58;1.20;;;-2.90;99.90;;;;;;5041923;28;20201;-81
2021/04/10 01:40:27;;;;;;;3.15;1.10;;;-2.90;99.90;;;;;;5029324;28;20202;-81
2021/04/10 01:42:54;;;;;;;1.65;1.13;;;-2.80;99.90;;;;;;5028666;28;20679;-81
2021/04/10 01:45:21;;;;;;;1.17;1.00;;;-2.80;99.90;;;;;;5029152;28;20198;-82
2021/04/10 01:47:48;;;;;;;4.82;1.30;;;-2.80;99.90;;;;;;5032693;28;20651;-81
2021/04/10 01:50:24;;;;;;;1.63;1.00;;;-2.90;99.90;;;;;;5025236;28;20197;-82
2021/04/10 01:52:51;;;;;;;5.20;1.20;;;-2.90;99.90;;;;;;5040439;28;20579;-81
2021/04/10 01:55:18;;;;;;;1.38;1.13;;;-3.00;99.90;;;;;;5042709;28;20186;-81
2021/04/10 01:57:44;;;;;;;1.60;1.20;;;-3.00;99.90;;;;;;5045856;28;20709;-81
2021/04/10 02:00:11;;;;;;;1.48;1.25;;;-3.10;99.90;;;;;;5041305;28;20288;-81
2021/04/10 02:02:40;;;;;;;1.20;1.10;;;-3.20;99.90;;;;;;5038809;28;20198;-81
2021/04/10 02:05:09;;;;;;;5.20;1.30;;;-3.20;99.90;;;;;;5042098;28;20247;-80
2021/04/10 02:07:38;;;;;;;1.92;1.30;;;-3.30;99.90;;;;;;5047469;28;20246;-81
2021/04/10 02:10:05;;;;;;;2.88;1.17;;;-3.40;99.90;;;;;;5060269;28;20193;-80
2021/04/10 02:12:32;;;;;;;1.65;1.27;;;-3.40;99.90;;;;;;5041411;28;20247;-80
2021/04/10 02:14:59;;;;;;;1.40;1.30;;;-3.40;99.90;;;;;;5065550;28;20228;-80
2021/04/10 02:17:24;;;;;;;1.48;1.33;;;-3.50;99.90;;;;;;5061542;28;20676;-81
2021/04/10 02:19:51;;;;;;;2.35;1.30;;;-3.50;99.90;;;;;;5061836;28;20200;-81
2021/04/10 02:22:17;;;;;;;2.83;1.40;;;-3.60;99.90;;;;;;5043337;28;20208;-81
2021/04/10 02:24:43;;;;;;;3.83;1.27;;;-3.60;99.90;;;;;;5055325;28;20197;-83
2021/04/10 02:27:10;;;;;;;2.15;1.27;;;-3.60;99.90;;;;;;5061780;28;20201;-80
2021/04/10 02:29:36;;;;;;;1.98;1.20;;;-3.60;99.90;;;;;;5060286;28;20221;-81
2021/04/10 02:32:06;;;;;;;1.65;1.10;;;-3.70;99.90;;;;;;5062747;28;20686;-80
2021/04/10 02:34:40;;;;;;;5.78;1.50;;;-3.60;99.90;;;;;;5042393;28;20588;-81
2021/04/10 02:37:07;;;;;;;6.20;1.52;;;-3.70;99.90;;;;;;5062016;28;20603;-81
2021/04/10 02:39:35;;;;;;;2.10;1.30;;;-3.70;99.90;;;;;;5047555;28;20239;-81
2021/04/10 02:42:04;;;;;;;1.95;1.33;;;-3.60;99.90;;;;;;5040583;28;20964;-81
2021/04/10 02:44:40;;;;;;;4.53;1.20;;;-3.60;99.90;;;;;;5047794;28;20193;-81
2021/04/10 02:47:07;;;;;;;2.35;1.02;;;-3.40;99.90;;;;;;5060275;28;20205;-82
2021/04/10 02:49:38;;;;;;;3.05;1.35;;;-3.50;99.90;;;;;;5043250;28;20250;-80
2021/04/10 02:52:06;;;;;;;3.08;1.20;;;-3.40;99.90;;;;;;5062177;28;20571;-80
2021/04/10 02:54:37;;;;;;;1.20;1.10;;;-3.40;99.90;;;;;;5060499;28;20272;-82
2021/04/10 02:57:16;;;;;;;2.30;1.20;;;-3.40;99.90;;;;;;5045880;28;20211;-80
2021/04/10 02:59:45;;;;;;;1.25;1.15;;;-3.50;99.90;;;;;;5061811;28;20215;-81
2021/04/10 03:02:12;;;;;;;1.23;1.10;;;-3.60;99.90;;;;;;5056859;28;20197;-82
2021/04/10 03:04:46;;;;;;;1.60;1.20;;;-3.70;99.90;;;;;;5045072;28;20575;-81
2021/04/10 03:07:13;;;;;;;6.40;1.20;;;-3.70;99.90;;;;;;5058013;28;20196;-82
2021/04/10 03:09:41;;;;;;;1.02;1.00;;;-3.80;99.90;;;;;;5042824;28;20216;-82
2021/04/10 03:12:07;;;;;;;3.15;1.30;;;-3.80;99.90;;;;;;5060931;28;20193;-81
2021/04/10 03:14:35;;;;;;;2.85;1.20;;;-3.90;99.90;;;;;;5065280;28;20197;-81
2021/04/10 03:17:01;;;;;;;3.42;1.17;;;-3.90;99.90;;;;;;5061249;28;20262;-81
2021/04/10 03:19:29;;;;;;;2.78;1.45;;;-3.90;99.90;;;;;;5058068;28;20674;-83
2021/04/10 03:21:55;;;;;;;4.78;1.23;;;-4.00;99.90;;;;;;5064051;28;20932;-80
2021/04/10 03:24:21;;;;;;;4.72;1.23;;;-4.00;99.90;;;;;;5043405;28;20253;-82
2021/04/10 03:26:47;;;;;;;3.47;1.20;;;-4.00;99.90;;;;;;5045449;28;20200;-83
2021/04/10 03:29:14;;;;;;;1.30;1.20;;;-4.00;99.90;;;;;;5046609;28;20709;-82
2021/04/10 03:31:40;;;;;;;3.63;1.23;;;-4.10;99.90;;;;;;5048747;28;20218;-82
2021/04/10 03:34:06;;;;;;;3.97;1.35;;;-4.00;99.90;;;;;;5058860;28;20201;-80
2021/04/10 03:36:33;;;;;;;1.65;1.30;;;-4.10;99.90;;;;;;5034436;28;20197;-82
2021/04/10 03:38:59;;;;;;;4.30;1.38;;;-4.10;99.90;;;;;;5049467;28;20674;-81
2021/04/10 03:41:25;;;;;;;5.68;1.33;;;-4.20;99.90;;;;;;5043091;28;20199;-82
2021/04/10 03:43:51;;;;;;;3.50;1.27;;;-4.30;99.90;;;;;;5058549;28;20671;-81
2021/04/10 03:46:17;;;;;;;1.35;1.08;;;-4.30;99.90;;;;;;5047284;28;20254;-82
2021/04/10 03:48:42;;;;;;;2.55;1.48;;;-4.30;99.90;;;;;;5059959;28;20204;-82
2021/04/10 03:51:08;;;;;;;5.45;1.13;;;-4.30;99.90;;;;;;5060494;28;20892;-82
2021/04/10 03:53:34;;;;;;;7.72;1.10;;;-4.30;99.90;;;;;;5044988;28;20291;-82
2021/04/10 03:55:59;;;;;;;3.22;1.30;;;-4.30;99.90;;;;;;5059914;28;20193;-82
2021/04/10 03:58:25;;;;;;;4.22;1.27;;;-4.30;99.90;;;;;;5044159;28;20200;-81
2021/04/10 04:00:51;;;;;;;2.15;1.10;;;-4.10;99.90;;;;;;5047192;28;20623;-81
2021/04/10 04:03:16;;;;;;;5.85;1.40;;;-3.90;99.90;;;;;;5061553;28;20287;-80
2021/04/10 04:05:46;;;;;;;3.65;1.20;;;-3.80;99.90;;;;;;5058632;28;20324;-81
2021/04/10 04:08:12;;;;;;;2.10;1.10;;;-3.90;99.90;;;;;;5058461;28;20306;-81
2021/04/10 04:10:38;;;;;;;2.30;1.25;;;-4.00;99.90;;;;;;5060989;28;20268;-81
2021/04/10 04:13:03;;;;;;;2.00;0.95;;;-4.00;99.90;;;;;;5058304;28;20201;-81
2021/04/10 04:15:29;;;;;;;1.15;1.05;;;-4.10;99.90;;;;;;5058888;28;20223;-81
2021/04/10 04:17:55;;;;;;;1.55;1.20;;;-4.10;99.90;;;;;;5047035;28;20201;-81
2021/04/10 04:20:21;;;;;;;2.85;1.20;;;-4.10;99.90;;;;;;5042881;28;20189;-81
2021/04/10 04:22:46;;;;;;;1.60;1.10;;;-4.20;99.90;;;;;;5063832;28;20211;-81
2021/04/10 04:25:12;;;;;;;1.73;1.10;;;-4.10;99.90;;;;;;5049226;28;20200;-81
2021/04/10 04:27:38;;;;;;;1.98;1.45;;;-4.00;99.90;;;;;;5063960;28;20246;-82
2021/04/10 04:30:06;;;;;;;2.15;1.25;;;-4.00;99.90;;;;;;5051606;28;20200;-81
2021/04/10 04:32:32;;;;;;;5.15;1.17;;;-4.00;99.90;;;;;;5047617;28;20272;-82
2021/04/10 04:34:57;;;;;;;4.30;1.40;;;-3.90;99.90;;;;;;5050280;28;20280;-82
2021/04/10 04:37:23;;;;;;;2.10;1.33;;;-3.80;99.90;;;;;;5051200;28;20662;-81
2021/04/10 04:39:49;;;;;;;3.88;1.30;;;-3.80;99.90;;;;;;5061718;28;20194;-81
2021/04/10 04:42:14;;;;;;;2.10;1.35;;;-3.80;99.90;;;;;;5064268;28;20205;-82
2021/04/10 04:44:40;;;;;;;2.20;1.45;;;-3.70;99.90;;;;;;5064539;28;20197;-80
2021/04/10 04:47:06;;;;;;;1.63;1.15;;;-3.70;99.90;;;;;;5052039;28;20239;-82
2021/04/10 04:49:32;;;;;;;1.80;1.40;;;-3.60;99.90;;;;;;5049349;28;20615;-81
2021/04/10 04:51:58;;;;;;;2.88;1.25;;;-3.50;99.90;;;;;;5048505;28;20255;-81
2021/04/10 04:54:23;;;;;;;1.80;1.30;;;-3.40;99.90;;;;;;5052551;28;20212;-81
2021/04/10 04:56:49;;;;;;;1.10;1.00;;;-3.20;99.90;;;;;;5044936;28;20201;-82
2021/04/10 04:59:16;;;;;;;3.70;1.27;;;-3.00;99.90;;;;;;5049432;28;20208;-82
2021/04/10 05:01:42;;;;;;;2.40;1.10;;;-2.70;99.90;;;;;;5046969;28;20726;-82
2021/04/10 05:04:08;;;;;;;2.15;1.17;;;-2.50;99.90;;;;;;5047761;28;20232;-83
2021/04/10 05:06:33;;;;;;;1.00;0.90;;;-2.20;99.90;;;;;;5060892;28;20202;-82
2021/04/10 05:08:59;;;;;;;1.35;1.08;;;-2.00;99.90;;;;;;5051433;28;20236;-83
2021/04/10 05:11:25;;;;;;;1.25;0.90;;;-1.80;99.90;;;;;;5044486;28;20285;-82
2021/04/10 05:13:51;;;;;;;1.90;0.80;;;-1.60;99.90;;;;;;5062005;28;20194;-82
2021/04/10 05:16:17;;;;;;;2.10;1.20;;;-1.50;99.90;;;;;;5051373;28;20225;-82
2021/04/10 05:18:43;;;;;;;1.40;1.08;;;-1.30;99.90;;;;;;5046329;28;20203;-83
2021/04/10 05:21:09;;;;;;;2.30;1.20;;;-1.20;99.90;;;;;;5066308;28;20684;-83
2021/04/10 05:23:34;;;;;;;2.30;1.20;;;-1.00;99.90;;;;;;5048331;28;20538;-82
2021/04/10 05:26:00;;;;;;;2.65;0.80;;;-0.90;99.90;;;;;;5045273;28;20226;-82
2021/04/10 05:28:26;;;;;;;1.25;1.08;;;-0.80;99.90;;;;;;5060339;28;20832;-82
2021/04/10 05:30:52;;;;;;;1.17;0.90;;;-0.70;99.90;;;;;;5061419;28;20269;-82
2021/04/10 05:33:18;;;;;;;1.42;0.90;;;-0.60;99.90;;;;;;5045787;28;20263;-84
2021/04/10 05:35:44;;;;;;;1.98;1.10;;;-0.50;99.90;;;;;;5042732;28;20722;-81
2021/04/10 05:38:10;;;;;;;1.92;1.10;;;-0.30;99.90;;;;;;5062233;28;20686;-82
2021/04/10 05:40:35;;;;;;;1.20;0.93;;;-0.30;99.90;;;;;;5060820;28;20201;-83
2021/04/10 05:43:01;;;;;;;1.13;0.90;;;-0.20;99.90;;;;;;5063044;28;20965;-83
2021/04/10 05:45:27;;;;;;;0.93;0.93;;;0.00;99.90;;;;;;5061381;28;20199;-83
2021/04/10 05:47:52;;;;;;;4.95;1.02;;;0.00;99.90;;;;;;5044421;28;20288;-82
2021/04/10 05:50:18;;;;;;;1.05;0.88;;;0.10;99.90;;;;;;5045731;28;20302;-83
2021/04/10 05:52:44;;;;;;;1.38;1.02;;;0.30;99.90;;;;;;5046727;28;20676;-82
2021/04/10 05:55:10;;;;;;;1.55;1.02;;;0.40;99.90;;;;;;5050645;28;20202;-83
2021/04/10 05:57:36;;;;;;;1.70;0.80;;;0.60;99.90;;;;;;5049961;28;20193;-83
2021/04/10 06:00:03;;;;;;;4.75;0.90;;;0.80;99.90;;;;;;5045924;28;20232;-82
2021/04/10 06:02:28;;;;;;;2.35;0.90;;;0.80;99.90;;;;;;5063647;28;20207;-84
2021/04/10 06:04:55;;;;;;;1.40;0.90;;;0.90;99.90;;;;;;5060961;28;20307;-83
2021/04/10 06:07:21;;;;;;;0.80;0.80;;;1.00;99.90;;;;;;5056334;28;20224;-83
2021/04/10 06:09:46;;;;;;;1.10;0.90;;;1.10;99.90;;;;;;5048124;28;20190;-84
2021/04/10 06:12:12;;;;;;;2.72;1.02;;;1.20;99.90;;;;;;5047767;28;20232;-84
2021/04/10 06:14:38;;;;;;;0.80;0.80;;;1.40;99.90;;;;;;5046830;28;20288;-83
2021/04/10 06:17:04;;;;;;;4.07;1.17;;;1.40;99.90;;;;;;5045569;28;20349;-83
2021/04/10 06:19:30;;;;;;;2.03;0.90;;;1.50;99.90;;;;;;5049914;28;20201;-83
2021/04/10 06:21:55;;;;;;;0.90;0.90;;;1.70;99.90;;;;;;5045228;28;20202;-83
2021/04/10 06:24:21;;;;;;;0.80;0.80;;;1.80;99.90;;;;;;5052295;28;20655;-82
2021/04/10 06:26:47;;;;;;;2.25;0.93;;;2.00;99.90;;;;;;5067663;28;20204;-83
2021/04/10 06:29:14;;;;;;;1.00;0.70;;;2.00;99.90;;;;;;5052474;28;20212;-82
2021/04/10 06:31:40;;;;;;;3.25;0.90;;;2.10;99.90;;;;;;5060527;28;20247;-84
2021/04/10 06:34:07;;;;;;;3.40;0.90;;;2.20;99.90;;;;;;5050643;28;20192;-83
2021/04/10 06:36:33;;;;;;;1.20;0.73;;;2.30;99.90;;;;;;5064233;28;20507;-83
2021/04/10 06:38:58;;;;;;;4.80;0.90;;;2.50;99.90;;;;;;5054268;28;20192;-83
2021/04/10 06:41:24;;;;;;;2.60;0.80;;;2.60;99.90;;;;;;5049767;28;20198;-82
2021/04/10 06:43:50;;;;;;;0.95;0.77;;;2.70;99.90;;;;;;5043124;28;20208;-83
2021/04/10 06:46:16;;;;;;;4.30;0.93;;;2.80;99.90;;;;;;5046027;28;20246;-83
2021/04/10 06:48:44;;;;;;;1.85;0.90;;;2.90;99.90;;;;;;5044305;28;20204;-83
2021/04/10 06:51:13;;;;;;;4.57;0.93;;;2.90;99.90;;;;;;5052389;28;20196;-82
2021/04/10 06:53:44;;;;;;;3.45;0.88;;;3.00;99.90;;;;;;5048735;28;21836;-82
2021/04/10 06:56:20;;;;;;;3.72;0.80;;;3.00;99.90;;;;;;5061013;28;20193;-83
2021/04/10 07:02:14;;;;;;;1.83;0.95;;;3.20;99.90;;;;;;5063687;28;20258;-83
2021/04/10 07:04:40;;;;;;;2.45;0.80;;;3.50;99.90;;;;;;5043564;28;20608;-83
2021/04/10 07:07:06;;;;;;;1.13;0.80;;;3.70;99.90;;;;;;5041776;28;20573;-82
2021/04/10 07:09:36;;;;;;;1.05;0.82;;;3.80;99.90;;;;;;5042177;28;20216;-82
2021/04/10 07:12:05;;;;;;;5.05;0.90;;;3.80;99.90;;;;;;5064387;28;20606;-83
2021/04/10 07:14:31;;;;;;;2.90;1.10;;;3.90;99.90;;;;;;5048468;28;20198;-84
2021/04/10 07:16:57;;;;;;;1.40;0.90;;;4.10;99.90;;;;;;5063187;28;20189;-87
2021/04/10 07:19:26;;;;;;;0.88;0.70;;;4.10;99.90;;;;;;5042737;28;20192;-85
2021/04/10 07:22:10;;;;;;;2.55;1.00;;;4.10;99.90;;;;;;5060645;28;20213;-83
2021/04/10 07:24:36;;;;;;;1.00;0.90;;;4.10;99.90;;;;;;5046252;28;20194;-85
2021/04/10 07:27:02;;;;;;;0.85;0.63;;;4.20;99.90;;;;;;5050745;28;20200;-86
2021/04/10 07:29:42;;;;;;;1.00;0.80;;;4.20;99.60;;;;;;5055203;28;20208;-86
2021/04/10 07:32:32;;;;;;;1.20;1.00;;;4.40;99.60;;;;;;5060658;28;20201;-85
2021/04/10 07:35:02;;;;;;;0.82;0.80;;;4.50;99.50;;;;;;5039006;28;20229;-85
2021/04/10 07:37:48;;;;;;;0.80;0.80;;;4.70;98.10;;;;;;5038448;28;20209;-87
2021/04/10 07:40:19;;;;;;;1.15;0.98;;;4.80;97.90;;;;;;5060991;28;20283;-87
2021/04/10 07:42:46;;;;;;;1.83;1.00;;;4.80;95.70;;;;;;5045521;28;20227;-86
2021/04/10 07:45:29;;;;;;;0.70;0.70;;;4.80;96.90;;;;;;5061161;28;20205;-88
2021/04/10 07:48:16;;;;;;;1.65;1.05;;;4.80;97.20;;;;;;5042941;28;20303;-89
2021/04/10 07:50:42;;;;;;;2.17;0.95;;;4.90;95.60;;;;;;5048025;28;20685;-85
2021/04/10 07:53:24;;;;;;;1.13;0.80;;;4.90;97.70;;;;;;5055676;28;20186;-85
2021/04/10 07:55:51;;;;;;;1.15;0.65;;;5.00;95.90;;;;;;5059215;28;20197;-90
2021/04/10 07:58:34;;;;;;;3.13;0.85;;;5.10;94.50;;;;;;5059324;28;20211;-87
2021/04/10 08:01:02;;;;;;;1.48;0.90;;;5.40;96.80;;;;;;5038122;28;20209;-86
2021/04/10 08:03:42;;;;;;;0.85;0.80;;;5.50;94.60;;;;;;5045561;28;20659;-86
2021/04/10 08:06:07;;;;;;;1.02;0.80;;;5.60;95.10;;;;;;5039687;28;20215;-83
2021/04/10 08:08:53;;;;;;;1.02;0.70;;;5.60;93.30;;;;;;5026406;28;20224;-84
2021/04/10 08:11:33;;;;;;;1.15;0.85;;;5.70;93.30;;;;;;5029414;28;20182;-83
2021/04/10 08:14:21;;;;;;;1.67;0.90;;;6.00;93.40;;;;;;5039489;28;20201;-85
2021/04/10 08:16:52;;;;;;;0.73;0.73;;;6.10;91.30;;;;;;5035013;28;21005;-85
2021/04/10 08:19:27;;;;;;;1.25;0.82;;;6.30;92.00;;;;;;5022716;28;20197;-85
2021/04/10 08:21:54;;;;;;;2.58;0.73;;;6.40;91.40;;;;;;5043596;28;20288;-85
2021/04/10 08:24:28;;;;;;;0.70;0.70;;;6.60;92.30;;;;;;5041957;28;20667;-84
2021/04/10 08:27:03;;;;;;;2.70;0.80;;;6.70;88.40;;;;;;5035928;28;20197;-88
2021/04/10 08:29:31;;;;;;;2.45;0.98;;;6.60;87.00;;;;;;5019097;28;20202;-87
2021/04/10 08:31:58;;;;;;;2.28;0.90;;;6.60;87.80;;;;;;5020093;28;20313;-84
2021/04/10 08:34:25;;;;;;;0.80;0.80;;;6.80;90.00;;;;;;5041647;28;20201;-81
2021/04/10 08:37:03;;;;;;;2.00;0.90;;;6.90;87.80;;;;;;5038000;28;20196;-84
2021/04/10 08:39:36;;;;;;;2.55;0.90;;;7.10;90.00;;;;;;5023408;28;20205;-88
2021/04/10 08:42:12;;;;;;;0.73;0.70;;;7.00;83.50;;;;;;5038760;28;20213;-88
2021/04/10 08:45:12;;;;;;;1.80;0.90;;;7.00;82.80;;;;;;5020152;28;20685;-89
2021/04/10 08:51:21;;;;;;;1.45;0.82;;;7.40;84.30;;;;;;5038959;28;20216;-88
2021/04/10 08:53:58;;;;;;;1.20;0.88;;;7.60;83.90;;;;;;5017396;28;20244;-87
2021/04/10 08:56:55;;;;;;;1.27;1.00;;;7.60;82.30;;;;;;5022830;28;20198;-91
2021/04/10 09:00:13;;;;;;;3.47;0.88;;;7.90;83.60;;;;;;4947895;28;20733;-91
2021/04/10 09:03:01;;;;;;;2.38;0.80;;;8.00;78.70;;;;;;4959842;28;20272;-87
2021/04/10 09:05:53;;;;;;;1.25;0.90;;;8.00;83.60;;;;;;4964300;28;20216;-88
2021/04/10 09:13:23;;;;;;;1.77;0.80;;;8.30;78.90;;;;;;4905947;29;20199;-89
2021/04/10 09:16:41;;;;;;;;;;;;;;;;;;;;;
2021/04/10 09:33:49;;;;;;;;;;;;;;;;;;;;;
2021/04/10 10:01:04;;;;;;;4.82;0.60;;;10.20;68.10;;;;;;4879509;29;20290;-92
2021/04/10 10:03:30;;;;;;;3.25;0.80;;;10.20;66.00;;;;;;4872330;29;20243;-79
2021/04/10 10:05:56;;;;;;;0.70;0.70;;;10.40;67.60;;;;;;4893376;29;20297;-83
2021/04/10 10:08:28;;;;;;;2.08;1.10;;;10.80;74.80;;;;;;4890948;29;20218;-82
2021/04/10 10:10:55;;;;;;;4.18;1.30;;;11.40;77.90;;;;;;4890854;29;20214;-80
2021/04/10 10:13:23;;;;;;;0.90;0.70;;;12.00;66.60;;;;;;4904734;28;20215;-79
2021/04/10 10:15:53;;;;;;;0.88;0.68;;;12.00;65.00;;;;;;4983691;28;20666;-81
2021/04/10 10:18:22;;;;;;;0.98;0.70;;;11.90;62.60;;;;;;4982692;28;20685;-80
2021/04/10 10:21:12;;;;;;;2.03;0.80;;;11.70;63.30;;;;;;5006303;28;20304;-80
2021/04/10 10:23:58;;;;;;;1.10;0.73;;;12.10;63.30;;;;;;5039209;28;20252;-80
2021/04/10 10:26:36;;;;;;;0.70;0.70;;;11.60;61.10;;;;;;5052768;28;20551;-80
2021/04/10 10:29:08;;;;;;;1.08;0.70;;;12.30;65.80;;;;;;5063089;28;20601;-78
2021/04/10 10:31:56;;;;;;;1.10;0.75;;;12.20;57.50;;;;;;5037813;28;20190;-80
2021/04/10 10:34:26;;;;;;;1.15;0.70;;;11.80;62.00;;;;;;5062516;28;20197;-82
2021/04/10 10:36:53;;;;;;;1.00;0.70;;;11.60;59.70;;;;;;5036537;28;20205;-81
2021/04/10 10:39:25;;;;;;;0.80;0.70;;;11.80;64.20;;;;;;5058982;28;20189;-86
2021/04/10 10:41:50;;;;;;;0.70;0.70;;;12.00;59.20;;;;;;5037442;28;20197;-79
2021/04/10 10:44:18;;;;;;;0.80;0.70;;;11.80;59.20;;;;;;5057545;28;20261;-79
2021/04/10 10:46:44;;;;;;;1.95;0.80;;;11.70;58.80;;;;;;5060372;28;20224;-79
2021/04/10 10:49:12;;;;;;;0.82;0.80;;;11.50;60.70;;;;;;5064582;28;20714;-78
2021/04/10 10:55:31;;;;;;;1.10;0.80;;;12.70;62.20;;;;;;4912946;28;20279;-91
2021/04/10 10:57:57;;;;;;;1.52;0.77;;;12.50;56.20;;;;;;4930076;28;20560;-89
2021/04/10 11:00:29;;;;;;;1.55;0.70;;;12.30;59.60;;;;;;4978111;28;20655;-86
2021/04/10 11:02:55;;;;;;;1.05;0.80;;;12.40;57.30;;;;;;5037802;28;20249;-88
2021/04/10 11:05:21;;;;;;;1.55;0.70;;;12.60;58.00;;;;;;5037115;28;20677;-85
2021/04/10 11:07:48;;;;;;;1.08;0.70;;;12.50;55.30;;;;;;5055001;28;20220;-85
2021/04/10 11:10:15;;;;;;;1.77;0.80;;;12.50;54.10;;;;;;5052615;28;20640;-86
2021/04/10 11:12:40;;;;;;;0.70;0.70;;;12.50;57.70;;;;;;5036300;28;20217;-87
2021/04/10 11:15:07;;;;;;;0.73;0.60;;;12.60;56.70;;;;;;5041791;28;20949;-86
2021/04/10 11:17:33;;;;;;;1.33;0.80;;;12.70;55.90;;;;;;5055332;28;20717;-85
2021/04/10 11:20:00;;;;;;;1.85;0.68;;;12.70;54.30;;;;;;5055493;28;20193;-79
2021/04/10 11:22:26;;;;;;;0.60;0.60;;;13.00;52.80;;;;;;5053828;28;20284;-85
2021/04/10 11:24:52;;;;;;;1.00;0.70;;;12.50;53.40;;;;;;5051241;28;20207;-84
2021/04/10 11:27:23;;;;;;;0.95;0.80;;;12.80;56.60;;;;;;5041125;28;20592;-88
2021/04/10 11:29:51;;;;;;;0.65;0.60;;;13.30;54.00;;;;;;5058191;28;20283;-86
2021/04/10 11:32:19;;;;;;;2.90;0.80;;;13.30;53.70;;;;;;5041126;28;20756;-86
2021/04/10 11:34:53;;;;;;;3.10;0.80;;;13.20;55.00;;;;;;5036267;28;20197;-86
2021/04/10 11:37:41;;;;;;;1.27;0.70;;;13.40;56.70;;;;;;5057217;28;20196;-86
2021/04/10 11:40:45;;;;;;;0.63;0.63;;;13.00;52.90;;;;;;5056953;28;20561;-86
2021/04/10 11:43:14;;;;;;;3.20;0.70;;;13.00;52.50;;;;;;5052717;28;20231;-74
2021/04/10 11:45:47;;;;;;;4.13;0.90;;;13.00;57.20;;;;;;5055989;28;20192;-79
2021/04/10 11:48:21;;;;;;;1.30;0.80;;;13.10;55.90;;;;;;5061337;28;20217;-83
2021/04/10 11:50:58;;;;;;;1.38;0.77;;;13.50;54.80;;;;;;5052612;28;20259;-79
2021/04/10 11:53:34;;;;;;;2.15;0.73;;;14.00;51.80;;;;;;5049492;28;20193;-75
2021/04/10 11:56:00;;;;;;;1.80;0.70;;;14.00;58.10;;;;;;5054739;28;20223;-74
2021/04/10 11:58:37;;;;;;;3.60;0.70;;;15.00;53.60;;;;;;5052379;28;20223;-73
2021/04/10 12:01:13;;;;;;;1.40;0.80;;;15.00;56.10;;;;;;5052265;28;20204;-74
2021/04/10 12:03:53;;;;;;;3.03;0.70;;;14.30;51.30;;;;;;5031954;28;20200;-73
2021/04/10 12:06:33;;;;;;;1.83;0.70;;;14.10;51.20;;;;;;5057469;28;20587;-75
2021/04/10 12:09:08;;;;;;;5.18;0.63;;;14.20;50.30;;;;;;5050238;28;20697;-73
2021/04/10 12:11:35;;;;;;;0.60;0.60;;;14.00;51.40;;;;;;5049956;28;20207;-77
2021/04/10 12:14:08;;;;;;;0.80;0.80;;;13.90;51.70;;;;;;5055509;28;20200;-78
2021/04/10 12:16:42;;;;;;;0.57;0.57;;;14.00;50.90;;;;;;5048301;28;20200;-76
2021/04/10 12:19:09;;;;;;;0.93;0.80;;;14.20;51.90;;;;;;5047323;28;20230;-74
2021/04/10 12:21:35;;;;;;;1.35;0.60;;;13.80;51.40;;;;;;5035490;28;20205;-74
2021/04/10 12:24:01;;;;;;;1.38;0.70;;;12.80;50.40;;;;;;5046982;28;20205;-74
2021/04/10 12:26:26;;;;;;;1.38;0.65;;;12.10;52.90;;;;;;5050999;28;20666;-73
2021/04/10 12:28:52;;;;;;;2.28;0.75;;;11.90;52.00;;;;;;5046677;28;21802;-77
2021/04/10 12:31:18;;;;;;;2.65;0.70;;;12.00;58.30;;;;;;5031009;28;20196;-77
2021/04/10 12:33:45;;;;;;;0.82;0.70;;;11.70;54.10;;;;;;5049771;28;20197;-80
2021/04/10 12:36:12;;;;;;;2.58;0.85;;;11.30;57.40;;;;;;5026910;28;20691;-76
2021/04/10 12:38:37;;;;;;;0.80;0.70;;;11.00;58.70;;;;;;5034412;28;20285;-78
2021/04/10 12:41:05;;;;;;;0.77;0.70;;;10.50;57.60;;;;;;5054156;28;20212;-76
2021/04/10 12:43:30;;;;;;;0.77;0.77;;;10.00;56.30;;;;;;5050319;28;20283;-77
2021/04/10 12:45:56;;;;;;;1.15;0.70;;;9.80;61.30;;;;;;5047186;28;20258;-79
2021/04/10 12:48:22;;;;;;;1.25;0.80;;;10.20;60.60;;;;;;5054900;28;20362;-78
2021/04/10 12:50:51;;;;;;;3.42;0.90;;;10.30;59.50;;;;;;5052631;28;20328;-79
2021/04/10 12:53:16;;;;;;;1.00;0.90;;;10.90;59.30;;;;;;5054234;28;20193;-80
2021/04/10 12:55:42;;;;;;;2.15;0.80;;;11.30;57.50;;;;;;5040508;28;20204;-80
2021/04/10 12:58:08;;;;;;;1.75;0.80;;;11.10;58.20;;;;;;5056519;28;20204;-81
2021/04/10 13:00:34;;;;;;;3.13;0.70;;;10.70;57.60;;;;;;5040435;28;20200;-81
2021/04/10 13:03:00;;;;;;;1.30;1.02;;;11.50;62.50;;;;;;5041436;28;20530;-81
2021/04/10 13:05:25;;;;;;;1.83;0.85;;;12.60;59.00;;;;;;5055828;28;20232;-80
2021/04/10 13:07:51;;;;;;;1.23;0.77;;;13.00;54.50;;;;;;5053639;28;20215;-81
2021/04/10 13:10:17;;;;;;;1.65;0.80;;;13.00;53.90;;;;;;5032898;28;20198;-80
2021/04/10 13:12:44;;;;;;;1.20;0.80;;;12.20;55.80;;;;;;5055321;28;20885;-82
2021/04/10 13:15:12;;;;;;;1.50;0.80;;;12.10;57.40;;;;;;5035299;28;20208;-80
2021/04/10 13:17:40;;;;;;;1.10;0.80;;;12.30;56.80;;;;;;5052697;28;20340;-81
2021/04/10 13:20:11;;;;;;;6.25;0.98;;;12.00;55.80;;;;;;5038324;28;20197;-81
2021/04/10 13:22:37;;;;;;;0.70;0.70;;;12.00;59.00;;;;;;5056778;28;20207;-81
2021/04/10 13:25:05;;;;;;;1.02;0.70;;;12.00;55.60;;;;;;5040559;28;20324;-81
2021/04/10 13:27:31;;;;;;;1.95;0.80;;;12.30;56.20;;;;;;5032777;28;20205;-82
2021/04/10 13:29:57;;;;;;;1.15;0.60;;;12.70;55.50;;;;;;5051886;28;20197;-83
2021/04/10 13:32:23;;;;;;;0.60;0.60;;;12.30;53.80;;;;;;5035798;28;20564;-81
2021/04/10 13:34:49;;;;;;;1.88;0.80;;;11.90;52.90;;;;;;5054237;28;20205;-82
2021/04/10 13:37:15;;;;;;;0.93;0.70;;;11.90;56.10;;;;;;5053427;28;20193;-82
2021/04/10 13:39:40;;;;;;;0.98;0.70;;;12.30;56.90;;;;;;5056540;28;20195;-82
2021/04/10 13:42:06;;;;;;;0.82;0.70;;;12.50;54.40;;;;;;5055522;28;20201;-82
2021/04/10 13:44:32;;;;;;;1.20;0.77;;;12.90;55.40;;;;;;5039225;28;20194;-81
2021/04/10 13:46:58;;;;;;;1.13;0.73;;;12.80;54.10;;;;;;5034989;28;20810;-83
2021/04/10 13:49:24;;;;;;;0.47;0.47;;;12.10;54.90;;;;;;5042085;28;20240;-83
2021/04/10 13:51:50;;;;;;;3.90;0.90;;;11.50;55.50;;;;;;5059331;28;20646;-82
2021/04/10 13:54:16;;;;;;;1.58;0.65;;;10.70;56.70;;;;;;5035617;28;20196;-83
2021/04/10 13:56:41;;;;;;;0.77;0.70;;;10.30;59.10;;;;;;5054150;28;20227;-83
2021/04/10 13:59:07;;;;;;;3.88;0.90;;;10.00;58.70;;;;;;5037209;28;20259;-83